EGNH Airport Information

Runway Information
Runway 07 Length 2621 ft width 98 ft
Elevation 33 ft Threshold 126 ft Heading 68
Runway 25 Length 2621 ft Width 98 ft
Elevation 29 ft Threshold 325 ft Heading 248
Runway 10 Length 6132 ft width 151 ft
Elevation 32 ft Threshold 0 ft Heading 95
Runway 28 Length 6132 ft Width 151 ft
Elevation 28 ft Threshold 0 ft Heading 275
Runway 13 Length 3533 ft width 75 ft
Elevation 32 ft Threshold 478 ft Heading 127
Runway 31 Length 3533 ft Width 75 ft
Elevation 30 ft Threshold 0 ft Heading 307
Airport Frequencies
Type APP Name APP Frequency 119.95 MHZ
Type ATIS Name ATIS Frequency 121.75 MHZ
Type TWR Name TWR Frequency 118.4 MHZ
Airport Navaids
Airport Weather Information & NOTAM
ADDS - METARS form results

(0734 UTC 01 June 2020)
Data provider http://aviationweather.gov/metar/data/
 
METAR text: EGNH 010720Z 11006KT CAVOK 17/07 Q1027
Conditions at: EGNH (BLACKPOOL AIRPOR, GB) observed 0720 UTC 01 June 2020
Temperature: 17.0°C (63°F)
Dewpoint: 7.0°C (45°F) [RH = 52%]
Pressure (altimeter): 30.32 inches Hg (1027.0 mb)
Winds: from the ESE (110 degrees) at 7 MPH (6 knots; 3.1 m/s)
Visibility: 6 or more miles (10+ km)
Ceiling: ceiling and visibility are OK
Clouds: unknown
Weather: no significant weather observed at this time

METAR text: EGNH 010650Z 09007KT 070V130 CAVOK 15/07 Q1027
Conditions at: EGNH (BLACKPOOL AIRPOR, GB) observed 0650 UTC 01 June 2020
Temperature: 15.0°C (59°F)
Dewpoint: 7.0°C (45°F) [RH = 59%]
Pressure (altimeter): 30.32 inches Hg (1027.0 mb)
Winds: from the E (90 degrees) at 8 MPH (7 knots; 3.6 m/s)
Visibility: 6 or more miles (10+ km)
Ceiling: ceiling and visibility are OK
Clouds: unknown
Weather: no significant weather observed at this time

Forecast for: EGNH (BLACKPOOL AIRPOR, GB)
Text: TAF EGNH 010606Z 0106/0112 08008KT CAVOK
Forecast period: 0600 to 1200 UTC 01 June 2020
Forecast type: FROM: standard forecast or significant change
Winds: from the E (80 degrees) at 9 MPH (8 knots; 4.1 m/s)
Visibility: 6 or more miles 10+ km)
Ceiling: unknown
Clouds: missing
Weather: NSW  (no significant weather)